Pagina principale
METAR-TAF:

METAR-TAF

Aeroporti :

Donau

Neuburg, Germania

latitudine: 48-43N, longitudine: 011-13E, altezza: 380 m

Osservazione

Il bollettino è stato emesso 41 minuti fa, alle 08:20 UTC
Vento 8 kt da est
Temperature 23°C
Umidità 61%
Pressione 1022 hPa
Visibilità 10 km o più
Poco nuvoloso ad un'altezza di 3000 ft
Nuvoloso ad un'altezza di 34000 ft

METAR: ETSN 180820Z 08008KT 9999 FEW030 BKN340 23/15 Q1022 BLU+BLU+

Ora: 11:01 (09:01 UTC)

Previsione

Il bollettino è stato emesso 1 ora e 43 minuti fa, alle 07:18 UTC
Previsione valida dal 18 alle 08 UTC al 18 alle 17 UTC
Vento 8 kt da est/nord-est
Visibilità 10 km o più
Poco nuvoloso ad un'altezza di 3000 ft
Nubi sparse ad un'altezza di 30000 ft

TAF: ETSN 180718Z 1808/1817 07008KT 9999 NSW FEW030 SCT300

Osservazioni e previsioni meteorologiche di più di 4000 aeroporti (messaggi METAR e TAF).

Le stazioni disponibili sono rappresentate dai dischi gialli e rossi sulla carta.

Puntare il mouse per vedere il nome della stazione.

Clicca sopra per visualizzare le osservazioni e previsioni meteorologiche.

Per cambiare la mappa : fare clic sui pulsanti verdi con una croce nera per ingrandire, il pulsante verde con un trattino per diminuire, o sulla freccia verde per le mappe adiacenti.


METAR-TAF: